sensor_id;sensor_type;location;lat;lon;timestamp;pressure;altitude;pressure_sealevel;temperature;humidity
3206;BME280;1615;53.602;11.418;2023-03-04T00:01:36;101483.75;;;7.58;100.00
3206;BME280;1615;53.602;11.418;2023-03-04T00:04:01;101488.13;;;7.59;100.00
3206;BME280;1615;53.602;11.418;2023-03-04T00:06:27;101485.44;;;7.64;100.00
3206;BME280;1615;53.602;11.418;2023-03-04T00:08:52;101483.53;;;7.64;100.00
3206;BME280;1615;53.602;11.418;2023-03-04T00:11:17;101475.09;;;7.66;100.00
3206;BME280;1615;53.602;11.418;2023-03-04T00:13:43;101427.81;;;7.34;100.00
3206;BME280;1615;53.602;11.418;2023-03-04T00:16:08;101414.31;;;7.22;100.00
3206;BME280;1615;53.602;11.418;2023-03-04T00:18:33;101473.94;;;7.62;100.00
3206;BME280;1615;53.602;11.418;2023-03-04T00:20:59;101482.47;;;7.65;100.00
3206;BME280;1615;53.602;11.418;2023-03-04T00:23:24;101486.84;;;7.66;100.00
3206;BME280;1615;53.602;11.418;2023-03-04T00:25:49;101476.72;;;7.67;100.00
3206;BME280;1615;53.602;11.418;2023-03-04T00:28:15;101472.94;;;7.68;100.00
3206;BME280;1615;53.602;11.418;2023-03-04T00:30:40;101405.19;;;7.33;100.00
3206;BME280;1615;53.602;11.418;2023-03-04T00:33:05;101480.09;;;7.74;100.00
3206;BME280;1615;53.602;11.418;2023-03-04T00:35:31;101475.19;;;7.76;100.00
3206;BME280;1615;53.602;11.418;2023-03-04T00:37:56;101464.28;;;7.76;100.00
3206;BME280;1615;53.602;11.418;2023-03-04T00:40:21;101479.56;;;7.77;100.00
3206;BME280;1615;53.602;11.418;2023-03-04T00:42:47;101461.56;;;7.76;100.00
3206;BME280;1615;53.602;11.418;2023-03-04T00:45:13;101451.19;;;7.78;100.00
3206;BME280;1615;53.602;11.418;2023-03-04T00:47:38;101446.56;;;7.78;100.00
3206;BME280;1615;53.602;11.418;2023-03-04T00:50:05;101445.72;;;7.78;100.00
3206;BME280;1615;53.602;11.418;2023-03-04T00:52:30;101447.72;;;7.82;100.00
3206;BME280;1615;53.602;11.418;2023-03-04T00:54:55;101305.50;;;6.94;100.00
3206;BME280;1615;53.602;11.418;2023-03-04T00:57:21;101396.94;;;7.55;100.00
3206;BME280;1615;53.602;11.418;2023-03-04T00:59:46;101437.03;;;7.81;100.00
3206;BME280;1615;53.602;11.418;2023-03-04T01:02:11;101422.78;;;7.74;100.00
3206;BME280;1615;53.602;11.418;2023-03-04T01:04:37;101393.66;;;7.53;100.00
3206;BME280;1615;53.602;11.418;2023-03-04T01:07:03;101430.28;;;7.62;100.00
3206;BME280;1615;53.602;11.418;2023-03-04T01:09:28;101428.44;;;7.67;100.00
3206;BME280;1615;53.602;11.418;2023-03-04T01:11:54;101427.63;;;7.67;100.00
3206;BME280;1615;53.602;11.418;2023-03-04T01:14:19;101427.38;;;7.68;100.00
3206;BME280;1615;53.602;11.418;2023-03-04T01:16:45;101424.38;;;7.70;100.00
3206;BME280;1615;53.602;11.418;2023-03-04T01:19:10;101425.97;;;7.66;100.00
3206;BME280;1615;53.602;11.418;2023-03-04T01:21:36;101421.13;;;7.73;100.00
3206;BME280;1615;53.602;11.418;2023-03-04T01:24:01;101423.09;;;7.77;100.00
3206;BME280;1615;53.602;11.418;2023-03-04T01:26:27;101417.94;;;7.81;100.00
3206;BME280;1615;53.602;11.418;2023-03-04T01:28:52;101419.56;;;7.82;100.00
3206;BME280;1615;53.602;11.418;2023-03-04T01:31:17;101410.59;;;7.86;100.00
3206;BME280;1615;53.602;11.418;2023-03-04T01:33:42;101408.75;;;7.92;100.00
3206;BME280;1615;53.602;11.418;2023-03-04T01:36:10;101401.69;;;7.96;100.00
3206;BME280;1615;53.602;11.418;2023-03-04T01:38:36;101397.84;;;7.92;100.00
3206;BME280;1615;53.602;11.418;2023-03-04T01:41:01;101403.59;;;7.95;100.00
3206;BME280;1615;53.602;11.418;2023-03-04T01:43:28;101407.16;;;7.96;100.00
3206;BME280;1615;53.602;11.418;2023-03-04T01:45:55;101392.97;;;7.99;100.00
3206;BME280;1615;53.602;11.418;2023-03-04T01:48:27;101395.44;;;8.00;100.00
3206;BME280;1615;53.602;11.418;2023-03-04T01:50:53;101385.91;;;8.03;100.00
3206;BME280;1615;53.602;11.418;2023-03-04T01:53:23;101369.22;;;7.99;100.00
3206;BME280;1615;53.602;11.418;2023-03-04T01:55:51;101381.00;;;8.00;100.00
3206;BME280;1615;53.602;11.418;2023-03-04T01:58:17;101378.25;;;8.00;100.00
3206;BME280;1615;53.602;11.418;2023-03-04T02:00:42;101376.88;;;8.02;100.00
3206;BME280;1615;53.602;11.418;2023-03-04T02:03:14;101368.44;;;8.04;100.00
3206;BME280;1615;53.602;11.418;2023-03-04T02:05:43;101372.81;;;8.05;100.00
3206;BME280;1615;53.602;11.418;2023-03-04T02:08:11;101366.84;;;8.08;100.00
3206;BME280;1615;53.602;11.418;2023-03-04T02:10:38;101370.69;;;8.12;100.00
3206;BME280;1615;53.602;11.418;2023-03-04T02:13:04;101365.25;;;8.12;100.00
3206;BME280;1615;53.602;11.418;2023-03-04T02:15:30;101251.19;;;7.46;100.00
3206;BME280;1615;53.602;11.418;2023-03-04T02:17:56;101338.66;;;8.02;100.00
3206;BME280;1615;53.602;11.418;2023-03-04T02:23:13;101360.94;;;8.21;100.00
3206;BME280;1615;53.602;11.418;2023-03-04T02:25:49;101351.09;;;8.20;100.00
3206;BME280;1615;53.602;11.418;2023-03-04T02:28:16;101345.06;;;8.18;100.00
3206;BME280;1615;53.602;11.418;2023-03-04T02:30:45;101347.78;;;8.18;100.00
3206;BME280;1615;53.602;11.418;2023-03-04T02:33:16;101351.47;;;8.33;100.00
3206;BME280;1615;53.602;11.418;2023-03-04T02:35:42;101335.34;;;8.27;100.00
3206;BME280;1615;53.602;11.418;2023-03-04T02:38:09;101187.22;;;7.27;100.00
3206;BME280;1615;53.602;11.418;2023-03-04T02:40:34;101348.69;;;8.28;100.00
3206;BME280;1615;53.602;11.418;2023-03-04T02:43:01;101338.06;;;8.27;100.00
3206;BME280;1615;53.602;11.418;2023-03-04T02:45:44;101334.22;;;8.23;100.00
3206;BME280;1615;53.602;11.418;2023-03-04T02:48:11;101200.22;;;7.51;100.00
3206;BME280;1615;53.602;11.418;2023-03-04T02:50:43;101263.59;;;8.00;100.00
3206;BME280;1615;53.602;11.418;2023-03-04T02:53:09;101329.59;;;8.33;100.00
3206;BME280;1615;53.602;11.418;2023-03-04T02:55:35;101322.50;;;8.32;100.00
3206;BME280;1615;53.602;11.418;2023-03-04T02:58:00;101334.78;;;8.30;100.00
3206;BME280;1615;53.602;11.418;2023-03-04T03:00:26;101323.84;;;8.30;100.00
3206;BME280;1615;53.602;11.418;2023-03-04T03:02:52;101324.69;;;8.30;100.00
3206;BME280;1615;53.602;11.418;2023-03-04T03:05:17;101321.72;;;8.32;100.00
3206;BME280;1615;53.602;11.418;2023-03-04T03:07:43;101323.28;;;8.23;100.00
3206;BME280;1615;53.602;11.418;2023-03-04T03:10:09;101282.97;;;7.98;100.00
3206;BME280;1615;53.602;11.418;2023-03-04T03:12:34;101314.50;;;8.21;100.00
3206;BME280;1615;53.602;11.418;2023-03-04T03:14:59;101314.84;;;8.24;100.00
3206;BME280;1615;53.602;11.418;2023-03-04T03:17:25;101311.53;;;8.22;100.00
3206;BME280;1615;53.602;11.418;2023-03-04T03:19:50;101310.16;;;8.25;100.00
3206;BME280;1615;53.602;11.418;2023-03-04T03:22:15;101308.03;;;8.27;100.00
3206;BME280;1615;53.602;11.418;2023-03-04T03:24:41;101188.22;;;7.52;100.00
3206;BME280;1615;53.602;11.418;2023-03-04T03:27:06;101297.91;;;8.27;100.00
3206;BME280;1615;53.602;11.418;2023-03-04T03:29:31;101299.84;;;8.32;100.00
3206;BME280;1615;53.602;11.418;2023-03-04T03:31:57;101296.53;;;8.30;100.00
3206;BME280;1615;53.602;11.418;2023-03-04T03:34:22;101302.84;;;8.30;100.00
3206;BME280;1615;53.602;11.418;2023-03-04T03:36:47;101215.47;;;7.84;100.00
3206;BME280;1615;53.602;11.418;2023-03-04T03:39:13;101209.31;;;7.67;100.00
3206;BME280;1615;53.602;11.418;2023-03-04T03:41:40;101307.19;;;8.26;100.00
3206;BME280;1615;53.602;11.418;2023-03-04T03:44:05;101295.41;;;8.26;100.00
3206;BME280;1615;53.602;11.418;2023-03-04T03:46:30;101285.56;;;8.20;100.00
3206;BME280;1615;53.602;11.418;2023-03-04T03:48:56;101295.66;;;8.19;100.00
3206;BME280;1615;53.602;11.418;2023-03-04T03:51:21;101284.72;;;8.19;100.00
3206;BME280;1615;53.602;11.418;2023-03-04T03:53:46;101285.56;;;8.20;100.00
3206;BME280;1615;53.602;11.418;2023-03-04T03:56:12;101281.16;;;8.19;100.00
3206;BME280;1615;53.602;11.418;2023-03-04T03:58:37;101274.13;;;8.23;100.00
3206;BME280;1615;53.602;11.418;2023-03-04T04:01:02;101282.59;;;8.26;100.00
3206;BME280;1615;53.602;11.418;2023-03-04T04:03:28;101282.84;;;8.25;100.00
3206;BME280;1615;53.602;11.418;2023-03-04T04:05:54;101270.81;;;8.21;100.00
3206;BME280;1615;53.602;11.418;2023-03-04T04:08:20;101271.84;;;8.15;100.00
3206;BME280;1615;53.602;11.418;2023-03-04T04:10:45;101280.63;;;8.17;100.00
3206;BME280;1615;53.602;11.418;2023-03-04T04:13:10;101276.78;;;8.18;100.00
3206;BME280;1615;53.602;11.418;2023-03-04T04:15:37;101265.03;;;8.17;100.00
3206;BME280;1615;53.602;11.418;2023-03-04T04:18:04;101154.88;;;7.40;100.00
3206;BME280;1615;53.602;11.418;2023-03-04T04:20:29;101272.94;;;8.14;100.00
3206;BME280;1615;53.602;11.418;2023-03-04T04:22:55;101273.50;;;8.16;100.00
3206;BME280;1615;53.602;11.418;2023-03-04T04:25:20;101263.72;;;8.20;100.00
3206;BME280;1615;53.602;11.418;2023-03-04T04:27:46;101267.81;;;8.22;100.00
3206;BME280;1615;53.602;11.418;2023-03-04T04:30:11;101194.94;;;7.76;100.00
3206;BME280;1615;53.602;11.418;2023-03-04T04:32:37;101336.38;;;8.26;100.00
3206;BME280;1615;53.602;11.418;2023-03-04T04:35:02;101270.59;;;8.27;100.00
3206;BME280;1615;53.602;11.418;2023-03-04T04:37:28;101272.50;;;8.27;100.00
3206;BME280;1615;53.602;11.418;2023-03-04T04:39:53;101265.13;;;8.27;100.00
3206;BME280;1615;53.602;11.418;2023-03-04T04:42:20;101252.72;;;8.15;100.00
3206;BME280;1615;53.602;11.418;2023-03-04T04:44:46;101270.06;;;8.30;100.00
3206;BME280;1615;53.602;11.418;2023-03-04T04:47:11;101271.41;;;8.28;100.00
3206;BME280;1615;53.602;11.418;2023-03-04T04:49:37;101268.66;;;8.23;100.00
3206;BME280;1615;53.602;11.418;2023-03-04T04:52:02;101260.75;;;8.26;100.00
3206;BME280;1615;53.602;11.418;2023-03-04T04:54:27;101257.75;;;8.28;100.00
3206;BME280;1615;53.602;11.418;2023-03-04T04:56:53;101243.19;;;8.17;100.00
3206;BME280;1615;53.602;11.418;2023-03-04T04:59:18;101256.94;;;8.27;100.00
3206;BME280;1615;53.602;11.418;2023-03-04T05:01:43;101251.19;;;8.29;100.00
3206;BME280;1615;53.602;11.418;2023-03-04T05:04:09;101247.94;;;8.32;100.00
3206;BME280;1615;53.602;11.418;2023-03-04T05:06:34;101249.00;;;8.31;100.00
3206;BME280;1615;53.602;11.418;2023-03-04T05:09:00;101197.47;;;7.93;100.00
3206;BME280;1615;53.602;11.418;2023-03-04T05:11:26;101286.44;;;8.30;100.00
3206;BME280;1615;53.602;11.418;2023-03-04T05:13:52;101129.06;;;7.58;100.00
3206;BME280;1615;53.602;11.418;2023-03-04T05:16:17;101239.22;;;8.35;100.00
3206;BME280;1615;53.602;11.418;2023-03-04T05:18:43;101247.41;;;8.35;100.00
3206;BME280;1615;53.602;11.418;2023-03-04T05:21:09;101249.63;;;8.38;100.00
3206;BME280;1615;53.602;11.418;2023-03-04T05:23:37;101232.91;;;8.34;100.00
3206;BME280;1615;53.602;11.418;2023-03-04T05:26:04;101249.84;;;8.31;100.00
3206;BME280;1615;53.602;11.418;2023-03-04T05:28:30;101262.41;;;8.32;100.00
3206;BME280;1615;53.602;11.418;2023-03-04T05:30:55;101250.63;;;8.22;100.00
3206;BME280;1615;53.602;11.418;2023-03-04T05:33:21;101230.94;;;8.20;100.00
3206;BME280;1615;53.602;11.418;2023-03-04T05:35:47;101234.78;;;8.24;100.00
3206;BME280;1615;53.602;11.418;2023-03-04T05:38:15;101225.09;;;8.06;100.00
3206;BME280;1615;53.602;11.418;2023-03-04T05:40:41;101261.22;;;8.18;100.00
3206;BME280;1615;53.602;11.418;2023-03-04T05:43:07;101251.94;;;8.19;100.00
3206;BME280;1615;53.602;11.418;2023-03-04T05:45:33;101257.72;;;8.23;100.00
3206;BME280;1615;53.602;11.418;2023-03-04T05:47:58;101265.13;;;8.27;100.00
3206;BME280;1615;53.602;11.418;2023-03-04T05:50:23;101257.19;;;8.26;100.00
3206;BME280;1615;53.602;11.418;2023-03-04T05:52:49;101262.63;;;8.21;100.00
3206;BME280;1615;53.602;11.418;2023-03-04T05:55:15;101257.19;;;8.26;100.00
3206;BME280;1615;53.602;11.418;2023-03-04T05:57:40;101261.28;;;8.28;100.00
3206;BME280;1615;53.602;11.418;2023-03-04T06:00:07;101256.16;;;8.32;100.00
3206;BME280;1615;53.602;11.418;2023-03-04T06:02:36;101254.47;;;8.31;100.00
3206;BME280;1615;53.602;11.418;2023-03-04T06:05:02;101146.72;;;7.45;100.00
3206;BME280;1615;53.602;11.418;2023-03-04T06:07:28;101250.69;;;8.37;100.00
3206;BME280;1615;53.602;11.418;2023-03-04T06:09:53;101252.06;;;8.39;100.00
3206;BME280;1615;53.602;11.418;2023-03-04T06:12:18;101229.84;;;8.21;100.00
3206;BME280;1615;53.602;11.418;2023-03-04T06:14:44;101259.94;;;8.31;100.00
3206;BME280;1615;53.602;11.418;2023-03-04T06:17:09;101262.97;;;8.29;100.00
3206;BME280;1615;53.602;11.418;2023-03-04T06:19:34;101261.59;;;8.32;100.00
3206;BME280;1615;53.602;11.418;2023-03-04T06:22:05;101257.78;;;8.33;100.00
3206;BME280;1615;53.602;11.418;2023-03-04T06:24:31;101274.19;;;8.33;100.00
3206;BME280;1615;53.602;11.418;2023-03-04T06:26:56;101265.16;;;8.37;100.00
3206;BME280;1615;53.602;11.418;2023-03-04T06:29:22;101266.53;;;8.35;100.00
3206;BME280;1615;53.602;11.418;2023-03-04T06:31:47;101261.34;;;8.38;100.00
3206;BME280;1615;53.602;11.418;2023-03-04T06:34:12;101273.13;;;8.44;100.00
3206;BME280;1615;53.602;11.418;2023-03-04T06:36:38;101273.38;;;8.42;100.00
3206;BME280;1615;53.602;11.418;2023-03-04T06:39:04;101276.94;;;8.38;100.00
3206;BME280;1615;53.602;11.418;2023-03-04T06:41:30;101270.06;;;8.30;100.00
3206;BME280;1615;53.602;11.418;2023-03-04T06:43:56;101274.75;;;8.40;100.00
3206;BME280;1615;53.602;11.418;2023-03-04T06:46:22;101266.75;;;8.28;100.00
3206;BME280;1615;53.602;11.418;2023-03-04T06:48:47;101257.22;;;8.36;100.00
3206;BME280;1615;53.602;11.418;2023-03-04T06:51:14;101280.25;;;8.50;100.00
3206;BME280;1615;53.602;11.418;2023-03-04T06:53:40;101285.72;;;8.50;100.00
3206;BME280;1615;53.602;11.418;2023-03-04T06:56:08;101285.97;;;8.48;100.00
3206;BME280;1615;53.602;11.418;2023-03-04T06:58:34;101364.41;;;8.48;100.00
3206;BME280;1615;53.602;11.418;2023-03-04T07:01:20;101270.91;;;8.41;100.00
3206;BME280;1615;53.602;11.418;2023-03-04T07:03:46;101279.44;;;8.54;100.00
3206;BME280;1615;53.602;11.418;2023-03-04T07:06:13;101264.38;;;8.47;100.00
3206;BME280;1615;53.602;11.418;2023-03-04T07:08:39;101289.00;;;8.52;100.00
3206;BME280;1615;53.602;11.418;2023-03-04T07:11:05;101173.88;;;7.72;100.00
3206;BME280;1615;53.602;11.418;2023-03-04T07:13:30;101304.25;;;8.38;100.00
3206;BME280;1615;53.602;11.418;2023-03-04T07:15:56;101298.75;;;8.33;100.00
3206;BME280;1615;53.602;11.418;2023-03-04T07:18:21;101305.31;;;8.32;100.00
3206;BME280;1615;53.602;11.418;2023-03-04T07:20:46;101299.56;;;8.33;100.00
3206;BME280;1615;53.602;11.418;2023-03-04T07:23:12;101302.28;;;8.33;100.00
3206;BME280;1615;53.602;11.418;2023-03-04T07:25:37;101304.78;;;8.40;100.00
3206;BME280;1615;53.602;11.418;2023-03-04T07:28:02;101296.59;;;8.40;100.00
3206;BME280;1615;53.602;11.418;2023-03-04T07:30:28;100952.72;;;6.34;100.00
3206;BME280;1615;53.602;11.418;2023-03-04T07:32:56;101306.50;;;8.56;100.00
3206;BME280;1615;53.602;11.418;2023-03-04T07:35:21;101304.88;;;8.55;100.00
3206;BME280;1615;53.602;11.418;2023-03-04T07:37:47;101316.38;;;8.62;100.00
3206;BME280;1615;53.602;11.418;2023-03-04T07:40:12;101261.09;;;8.45;100.00
3206;BME280;1615;53.602;11.418;2023-03-04T07:42:37;101301.09;;;8.71;100.00
3206;BME280;1615;53.602;11.418;2023-03-04T07:45:04;101297.25;;;8.67;100.00
3206;BME280;1615;53.602;11.418;2023-03-04T07:47:30;101297.81;;;8.74;100.00
3206;BME280;1615;53.602;11.418;2023-03-04T07:49:55;101300.84;;;8.72;100.00
3206;BME280;1615;53.602;11.418;2023-03-04T07:52:21;101227.72;;;8.28;100.00
3206;BME280;1615;53.602;11.418;2023-03-04T07:54:46;101303.88;;;8.76;100.00
3206;BME280;1615;53.602;11.418;2023-03-04T07:57:11;101300.59;;;8.84;100.00
3206;BME280;1615;53.602;11.418;2023-03-04T07:59:37;101305.28;;;8.88;100.00
3206;BME280;1615;53.602;11.418;2023-03-04T08:02:02;101326.31;;;8.88;100.00
3206;BME280;1615;53.602;11.418;2023-03-04T08:04:27;101310.97;;;8.82;100.00
3206;BME280;1615;53.602;11.418;2023-03-04T08:06:53;101307.69;;;8.75;100.00
3206;BME280;1615;53.602;11.418;2023-03-04T08:09:18;101312.56;;;8.68;100.00
3206;BME280;1615;53.602;11.418;2023-03-04T08:11:43;101318.03;;;8.68;100.00
3206;BME280;1615;53.602;11.418;2023-03-04T08:14:11;101321.31;;;8.65;100.00
3206;BME280;1615;53.602;11.418;2023-03-04T08:16:36;101329.50;;;8.60;100.00
3206;BME280;1615;53.602;11.418;2023-03-04T08:19:03;101335.47;;;8.57;100.00
3206;BME280;1615;53.602;11.418;2023-03-04T08:21:29;101327.00;;;8.53;100.00
3206;BME280;1615;53.602;11.418;2023-03-04T08:23:57;101331.34;;;8.54;100.00
3206;BME280;1615;53.602;11.418;2023-03-04T08:26:35;101338.19;;;8.52;100.00
3206;BME280;1615;53.602;11.418;2023-03-04T08:29:06;101344.19;;;8.49;100.00
3206;BME280;1615;53.602;11.418;2023-03-04T08:31:31;101331.34;;;8.49;100.00
3206;BME280;1615;53.602;11.418;2023-03-04T08:33:57;101330.28;;;8.60;100.00
3206;BME280;1615;53.602;11.418;2023-03-04T08:36:22;101326.50;;;8.61;100.00
3206;BME280;1615;53.602;11.418;2023-03-04T08:38:48;101332.22;;;8.60;100.00
3206;BME280;1615;53.602;11.418;2023-03-04T08:41:13;101219.28;;;7.88;100.00
3206;BME280;1615;53.602;11.418;2023-03-04T08:43:40;101329.50;;;8.60;100.00
3206;BME280;1615;53.602;11.418;2023-03-04T08:46:06;101279.25;;;8.19;100.00
3206;BME280;1615;53.602;11.418;2023-03-04T08:48:32;101336.63;;;8.71;100.00
3206;BME280;1615;53.602;11.418;2023-03-04T08:50:57;101335.00;;;8.70;100.00
3206;BME280;1615;53.602;11.418;2023-03-04T08:53:23;101335.00;;;8.70;100.00
3206;BME280;1615;53.602;11.418;2023-03-04T08:55:50;101342.63;;;8.68;100.00
3206;BME280;1615;53.602;11.418;2023-03-04T08:58:16;101214.94;;;7.92;100.00
3206;BME280;1615;53.602;11.418;2023-03-04T09:00:47;101358.47;;;8.61;100.00
3206;BME280;1615;53.602;11.418;2023-03-04T09:03:13;101335.00;;;8.70;100.00
3206;BME280;1615;53.602;11.418;2023-03-04T09:05:39;101323.00;;;8.76;100.00
3206;BME280;1615;53.602;11.418;2023-03-04T09:08:05;101332.91;;;8.92;100.00
3206;BME280;1615;53.602;11.418;2023-03-04T09:10:30;101332.66;;;9.08;100.00
3206;BME280;1615;53.602;11.418;2023-03-04T09:12:56;101329.09;;;9.03;100.00
3206;BME280;1615;53.602;11.418;2023-03-04T09:15:22;101338.38;;;8.92;100.00
3206;BME280;1615;53.602;11.418;2023-03-04T09:17:47;101342.72;;;8.88;100.00
3206;BME280;1615;53.602;11.418;2023-03-04T09:20:12;101356.38;;;8.83;100.00
3206;BME280;1615;53.602;11.418;2023-03-04T09:22:39;101305.03;;;8.33;100.00
3206;BME280;1615;53.602;11.418;2023-03-04T09:25:05;101345.09;;;8.69;100.00
3206;BME280;1615;53.602;11.418;2023-03-04T09:27:30;101344.25;;;8.69;100.00
3206;BME280;1615;53.602;11.418;2023-03-04T09:29:56;101355.25;;;8.79;100.00
3206;BME280;1615;53.602;11.418;2023-03-04T09:32:21;101347.03;;;8.74;100.00
3206;BME280;1615;53.602;11.418;2023-03-04T09:34:46;101339.75;;;8.99;100.00
3206;BME280;1615;53.602;11.418;2023-03-04T09:37:12;101331.28;;;9.11;100.00
3206;BME280;1615;53.602;11.418;2023-03-04T09:39:37;101343.31;;;9.10;100.00
3206;BME280;1615;53.602;11.418;2023-03-04T09:42:03;101320.31;;;8.91;100.00
3206;BME280;1615;53.602;11.418;2023-03-04T09:44:34;101381.56;;;8.95;100.00
3206;BME280;1615;53.602;11.418;2023-03-04T09:47:03;101356.91;;;8.85;100.00
3206;BME280;1615;53.602;11.418;2023-03-04T09:49:30;101231.41;;;8.07;100.00
3206;BME280;1615;53.602;11.418;2023-03-04T09:54:41;101350.91;;;8.83;100.00
3206;BME280;1615;53.602;11.418;2023-03-04T09:57:29;101361.25;;;8.71;100.00
3206;BME280;1615;53.602;11.418;2023-03-04T10:00:06;101353.81;;;8.66;100.00
3206;BME280;1615;53.602;11.418;2023-03-04T10:03:03;101348.19;;;8.88;100.00
3206;BME280;1615;53.602;11.418;2023-03-04T10:05:39;101345.22;;;8.94;100.00
3206;BME280;1615;53.602;11.418;2023-03-04T10:10:54;101292.91;;;8.71;100.00
3206;BME280;1615;53.602;11.418;2023-03-04T10:13:36;101344.97;;;9.16;100.00
3206;BME280;1615;53.602;11.418;2023-03-04T10:16:04;101337.06;;;9.24;100.00
3206;BME280;1615;53.602;11.418;2023-03-04T10:18:36;101293.41;;;8.63;100.00
3206;BME280;1615;53.602;11.418;2023-03-04T10:21:21;101359.06;;;8.78;100.00
3206;BME280;1615;53.602;11.418;2023-03-04T10:23:48;101365.13;;;8.85;100.00
3206;BME280;1615;53.602;11.418;2023-03-04T10:26:17;101362.41;;;8.90;100.00
3206;BME280;1615;53.602;11.418;2023-03-04T10:28:45;101353.09;;;8.81;100.00
3206;BME280;1615;53.602;11.418;2023-03-04T10:31:31;101199.44;;;8.07;100.00
3206;BME280;1615;53.602;11.418;2023-03-04T10:33:59;101176.75;;;7.97;100.00
3206;BME280;1615;53.602;11.418;2023-03-04T10:38:59;101249.63;;;8.38;100.00
3206;BME280;1615;53.602;11.418;2023-03-04T10:41:27;101363.31;;;9.10;100.00
3206;BME280;1615;53.602;11.418;2023-03-04T10:46:24;101360.53;;;8.95;100.00
3206;BME280;1615;53.602;11.418;2023-03-04T10:48:49;101340.50;;;8.85;100.00
3206;BME280;1615;53.602;11.418;2023-03-04T10:51:26;101363.56;;;9.04;100.00
3206;BME280;1615;53.602;11.418;2023-03-04T10:54:33;101368.47;;;8.97;100.00
3206;BME280;1615;53.602;11.418;2023-03-04T10:57:05;101362.44;;;9.00;100.00
3206;BME280;1615;53.602;11.418;2023-03-04T10:59:48;101353.72;;;9.03;100.00
3206;BME280;1615;53.602;11.418;2023-03-04T11:02:33;101367.41;;;9.08;100.00
3206;BME280;1615;53.602;11.418;2023-03-04T11:05:16;101368.47;;;8.97;100.00
3206;BME280;1615;53.602;11.418;2023-03-04T11:07:44;101361.31;;;8.86;100.00
3206;BME280;1615;53.602;11.418;2023-03-04T11:10:20;101371.72;;;8.94;100.00
3206;BME280;1615;53.602;11.418;2023-03-04T11:15:26;101382.34;;;8.85;100.00
3206;BME280;1615;53.602;11.418;2023-03-04T11:17:56;101367.38;;;9.03;100.00
3206;BME280;1615;53.602;11.418;2023-03-04T11:20:32;101369.31;;;9.12;100.00
3206;BME280;1615;53.602;11.418;2023-03-04T11:23:03;101363.00;;;8.97;100.00
3206;BME280;1615;53.602;11.418;2023-03-04T11:25:33;101250.19;;;8.50;100.00
3206;BME280;1615;53.602;11.418;2023-03-04T11:28:03;101368.03;;;9.35;100.00
3206;BME280;1615;53.602;11.418;2023-03-04T11:33:47;101368.03;;;9.45;100.00
3206;BME280;1615;53.602;11.418;2023-03-04T11:38:50;101357.13;;;9.60;100.00
3206;BME280;1615;53.602;11.418;2023-03-04T11:43:50;101354.66;;;9.73;100.00
3206;BME280;1615;53.602;11.418;2023-03-04T11:49:41;101357.69;;;9.77;100.00
3206;BME280;1615;53.602;11.418;2023-03-04T11:52:16;101362.88;;;9.73;100.00
3206;BME280;1615;53.602;11.418;2023-03-04T12:00:26;101365.31;;;9.55;100.00
3206;BME280;1615;53.602;11.418;2023-03-04T12:03:14;101356.53;;;9.53;100.00
3206;BME280;1615;53.602;11.418;2023-03-04T12:06:24;101369.69;;;9.46;100.00
3206;BME280;1615;53.602;11.418;2023-03-04T12:08:57;101353.25;;;9.46;100.00
3206;BME280;1615;53.602;11.418;2023-03-04T12:11:57;101352.19;;;9.57;100.00
3206;BME280;1615;53.602;11.418;2023-03-04T12:14:33;101353.53;;;9.54;100.00
3206;BME280;1615;53.602;11.418;2023-03-04T12:22:47;101342.88;;;9.68;100.00
3206;BME280;1615;53.602;11.418;2023-03-04T12:25:41;101349.47;;;9.67;100.00
3206;BME280;1615;53.602;11.418;2023-03-04T12:34:32;101336.84;;;9.91;100.00
3206;BME280;1615;53.602;11.418;2023-03-04T12:45:46;101340.16;;;9.83;100.00
3206;BME280;1615;53.602;11.418;2023-03-04T12:56:21;101330.28;;;10.07;100.00
3206;BME280;1615;53.602;11.418;2023-03-04T12:58:47;101331.38;;;10.11;100.00
3206;BME280;1615;53.602;11.418;2023-03-04T13:07:21;101316.59;;;10.07;100.00
3206;BME280;1615;53.602;11.418;2023-03-04T13:09:54;101310.31;;;10.11;100.00
3206;BME280;1615;53.602;11.418;2023-03-04T13:12:22;101184.72;;;9.20;100.00
3206;BME280;1615;53.602;11.418;2023-03-04T13:25:42;101310.84;;;9.43;100.00
3206;BME280;1615;53.602;11.418;2023-03-04T13:38:23;101265.66;;;9.11;100.00
3206;BME280;1615;53.602;11.418;2023-03-04T13:41:15;101318.22;;;9.53;100.00
3206;BME280;1615;53.602;11.418;2023-03-04T13:53:52;101313.31;;;9.70;100.00
3206;BME280;1615;53.602;11.418;2023-03-04T14:02:11;101192.75;;;8.30;100.00
3206;BME280;1615;53.602;11.418;2023-03-04T14:04:42;101276.88;;;9.04;100.00
3206;BME280;1615;53.602;11.418;2023-03-04T14:07:23;101302.38;;;9.55;100.00
3206;BME280;1615;53.602;11.418;2023-03-04T14:12:47;101298.25;;;9.62;100.00
3206;BME280;1615;53.602;11.418;2023-03-04T14:17:39;101316.06;;;9.50;100.00
3206;BME280;1615;53.602;11.418;2023-03-04T14:22:56;101258.78;;;8.83;100.00
3206;BME280;1615;53.602;11.418;2023-03-04T14:25:26;101317.00;;;8.89;100.00
3206;BME280;1615;53.602;11.418;2023-03-04T14:30:35;101306.88;;;8.79;100.00
3206;BME280;1615;53.602;11.418;2023-03-04T14:33:00;101324.03;;;8.60;100.00
3206;BME280;1615;53.602;11.418;2023-03-04T14:35:29;101318.41;;;8.35;100.00
3206;BME280;1615;53.602;11.418;2023-03-04T14:38:07;101321.78;;;8.52;100.00
3206;BME280;1615;53.602;11.418;2023-03-04T14:40:44;101314.22;;;8.64;100.00
3206;BME280;1615;53.602;11.418;2023-03-04T14:43:15;101309.22;;;8.51;100.00
3206;BME280;1615;53.602;11.418;2023-03-04T14:45:44;101313.13;;;8.70;100.00
3206;BME280;1615;53.602;11.418;2023-03-04T14:48:37;101343.25;;;8.80;100.00
3206;BME280;1615;53.602;11.418;2023-03-04T14:51:03;101317.00;;;8.84;100.00
3206;BME280;1615;53.602;11.418;2023-03-04T14:53:30;101314.28;;;8.94;100.00
3206;BME280;1615;53.602;11.418;2023-03-04T14:58:36;101309.69;;;9.04;100.00
3206;BME280;1615;53.602;11.418;2023-03-04T15:01:20;101302.34;;;9.20;100.00
3206;BME280;1615;53.602;11.418;2023-03-04T15:04:06;101301.78;;;9.33;100.00